createdAt,value
2022-09-16T00:00:47.861Z,19.49
2022-09-16T00:05:52.574Z,19.42
2022-09-16T00:10:59.667Z,19.80
2022-09-16T00:16:02.432Z,20.11
2022-09-16T00:21:09.287Z,20.55
2022-09-16T00:26:11.723Z,20.68
2022-09-16T00:31:14.247Z,20.59
2022-09-16T00:36:19.136Z,20.43
2022-09-16T00:41:25.955Z,20.65
2022-09-16T00:46:46.467Z,20.54
2022-09-16T00:51:53.349Z,20.01
2022-09-16T00:56:58.656Z,20.15
2022-09-16T01:02:08.352Z,20.04
2022-09-16T01:07:11.454Z,18.92
2022-09-16T01:12:13.954Z,19.51
2022-09-16T01:17:37.410Z,19.41
2022-09-16T01:22:51.923Z,19.26
2022-09-16T01:28:19.048Z,18.88
2022-09-16T01:33:40.266Z,19.70
2022-09-16T01:38:58.071Z,20.05
2022-09-16T01:44:20.553Z,20.38
2022-09-16T01:49:31.906Z,20.38
2022-09-16T01:54:46.848Z,20.67
2022-09-16T02:00:11.113Z,20.16
2022-09-16T02:05:24.708Z,20.29
2022-09-16T02:10:32.046Z,20.52
2022-09-16T02:15:35.535Z,20.21
2022-09-16T02:20:43.026Z,20.26
2022-09-16T02:25:49.096Z,18.90
2022-09-16T02:30:56.151Z,16.99
2022-09-16T02:36:02.645Z,17.30
2022-09-16T02:41:05.327Z,18.66
2022-09-16T02:46:20.292Z,18.64
2022-09-16T02:51:47.819Z,19.13
2022-09-16T02:56:50.539Z,19.30
2022-09-16T03:01:53.048Z,19.32
2022-09-16T03:06:55.568Z,17.36
2022-09-16T03:12:39.603Z,16.33
2022-09-16T03:18:03.369Z,16.17
2022-09-16T03:23:35.501Z,16.06
2022-09-16T03:28:49.836Z,15.95
2022-09-16T03:34:20.384Z,17.89
2022-09-16T03:39:23.367Z,18.13
2022-09-16T03:44:36.539Z,18.46
2022-09-16T03:49:39.586Z,17.77
2022-09-16T03:54:42.066Z,16.89
2022-09-16T03:59:44.499Z,17.78
2022-09-16T04:04:47.379Z,17.75
2022-09-16T04:09:49.837Z,17.98
2022-09-16T04:14:51.917Z,18.62
2022-09-16T04:19:53.954Z,18.80
2022-09-16T04:24:56.880Z,18.97
2022-09-16T04:29:59.332Z,18.82
2022-09-16T04:35:01.505Z,18.43
2022-09-16T04:40:05.171Z,18.07
2022-09-16T04:45:08.097Z,17.26
2022-09-16T04:50:11.340Z,17.63
2022-09-16T04:55:13.817Z,18.34
2022-09-16T05:00:16.885Z,19.21
2022-09-16T05:05:19.675Z,18.98
2022-09-16T05:10:22.358Z,19.02
2022-09-16T05:15:24.825Z,19.46
2022-09-16T05:20:27.332Z,19.62
2022-09-16T05:25:29.806Z,18.97
2022-09-16T05:30:32.245Z,18.60
2022-09-16T05:35:34.814Z,17.23
2022-09-16T05:40:37.588Z,16.79
2022-09-16T05:45:40.098Z,18.59
2022-09-16T05:50:42.541Z,19.16
2022-09-16T05:55:54.808Z,19.05
2022-09-16T06:01:10.338Z,17.94
2022-09-16T06:06:33.394Z,17.52
2022-09-16T06:11:41.936Z,18.65
2022-09-16T06:16:44.822Z,18.37
2022-09-16T06:21:47.813Z,17.55
2022-09-16T06:26:50.445Z,18.44
2022-09-16T06:31:52.957Z,18.58
2022-09-16T06:36:55.454Z,18.50
2022-09-16T06:41:57.925Z,17.77
2022-09-16T06:47:15.545Z,18.39
2022-09-16T06:52:19.309Z,19.12
2022-09-16T06:57:23.595Z,19.16
2022-09-16T07:02:26.686Z,18.42
2022-09-16T07:07:32.129Z,18.68
2022-09-16T07:12:34.540Z,18.95
2022-09-16T07:17:36.945Z,19.27
2022-09-16T07:22:39.607Z,19.79
2022-09-16T07:27:42.797Z,19.66
2022-09-16T07:32:45.453Z,19.19
2022-09-16T07:37:48.124Z,19.06
2022-09-16T07:42:50.857Z,18.79
2022-09-16T07:47:53.371Z,18.99
2022-09-16T07:52:56.909Z,19.04
2022-09-16T07:57:59.424Z,18.70
2022-09-16T08:03:01.898Z,18.30
2022-09-16T08:08:04.589Z,18.81
2022-09-16T08:13:08.666Z,18.84
2022-09-16T08:18:11.165Z,17.94
2022-09-16T08:23:14.657Z,17.29
2022-09-16T08:28:18.212Z,17.11
2022-09-16T08:33:21.543Z,17.47
2022-09-16T08:38:24.186Z,17.60
2022-09-16T08:43:36.285Z,16.96
2022-09-16T08:48:58.586Z,17.76
2022-09-16T08:54:50.598Z,17.42
2022-09-16T09:00:01.116Z,18.16
2022-09-16T09:05:11.491Z,18.02
2022-09-16T09:10:51.054Z,16.34
2022-09-16T09:16:17.024Z,15.80
2022-09-16T09:21:32.105Z,15.94
2022-09-16T09:27:01.777Z,16.30
2022-09-16T09:32:26.014Z,15.70
2022-09-16T09:37:42.485Z,15.19
2022-09-16T09:43:23.400Z,14.95
2022-09-16T09:48:37.662Z,15.12
2022-09-16T09:53:52.943Z,15.02
2022-09-16T09:58:58.651Z,15.21
2022-09-16T10:04:01.665Z,14.87
2022-09-16T10:09:04.053Z,14.85
2022-09-16T10:14:06.543Z,15.06
2022-09-16T10:19:20.994Z,15.15
2022-09-16T10:24:26.406Z,15.41
2022-09-16T10:29:29.531Z,15.05
2022-09-16T10:34:39.068Z,15.35
2022-09-16T10:39:44.768Z,15.35
2022-09-16T10:44:48.431Z,15.57
2022-09-16T10:50:01.818Z,15.71
2022-09-16T10:55:29.822Z,15.35
2022-09-16T11:00:56.230Z,15.09
2022-09-16T11:06:28.100Z,15.45
2022-09-16T11:12:05.421Z,15.51
2022-09-16T11:17:11.431Z,15.29
2022-09-16T11:22:50.525Z,16.13
2022-09-16T11:27:55.908Z,16.31
2022-09-16T11:33:17.392Z,15.72
2022-09-16T11:38:42.372Z,15.44
2022-09-16T11:44:24.503Z,15.81
2022-09-16T11:49:33.124Z,16.29
2022-09-16T11:54:50.491Z,17.22
2022-09-16T12:00:00.881Z,17.30
2022-09-16T12:05:13.255Z,17.08
2022-09-16T12:10:24.652Z,16.69
2022-09-16T12:15:37.052Z,16.46
2022-09-16T12:20:45.385Z,16.43
2022-09-16T12:26:15.095Z,17.17
2022-09-16T12:31:31.455Z,16.34
2022-09-16T12:36:39.295Z,16.40
2022-09-16T12:41:51.826Z,16.42
2022-09-16T12:47:12.386Z,16.40
2022-09-16T12:52:39.984Z,16.35
2022-09-16T12:58:03.580Z,16.09
2022-09-16T13:03:16.861Z,15.82
2022-09-16T13:08:20.379Z,15.80
2022-09-16T13:13:33.802Z,16.07
2022-09-16T13:18:51.185Z,16.24
2022-09-16T13:24:31.589Z,16.39
2022-09-16T13:29:44.438Z,16.84
2022-09-16T13:34:47.075Z,20.58
2022-09-16T13:39:50.440Z,19.52
2022-09-16T13:44:53.098Z,22.08
2022-09-16T13:50:15.564Z,20.59
2022-09-16T13:55:27.164Z,19.81
2022-09-16T14:01:10.417Z,19.61
2022-09-16T14:06:27.068Z,19.51
2022-09-16T14:11:48.558Z,19.07
2022-09-16T14:16:53.187Z,22.34
2022-09-16T14:22:05.481Z,23.43
2022-09-16T14:27:30.659Z,25.50
2022-09-16T14:32:36.826Z,27.00
2022-09-16T14:37:40.922Z,22.83
2022-09-16T14:43:05.686Z,22.26
2022-09-16T14:48:10.707Z,20.75
2022-09-16T14:53:36.323Z,19.89
2022-09-16T14:58:40.027Z,18.62
2022-09-16T15:03:53.133Z,18.15
2022-09-16T15:09:09.072Z,18.39
2022-09-16T15:14:11.619Z,18.33
2022-09-16T15:19:26.373Z,19.40
2022-09-16T15:24:32.238Z,19.25
2022-09-16T15:29:46.864Z,18.42
2022-09-16T15:35:01.076Z,18.43
2022-09-16T15:40:27.637Z,19.34
2022-09-16T15:45:30.849Z,19.95
2022-09-16T15:50:51.197Z,20.64
2022-09-16T15:56:14.954Z,20.21
2022-09-16T16:01:39.298Z,19.18
2022-09-16T16:06:53.812Z,18.62
2022-09-16T16:11:59.540Z,19.27
2022-09-16T16:17:19.110Z,19.02
2022-09-16T16:22:22.057Z,18.12
2022-09-16T16:27:24.784Z,17.71
2022-09-16T16:32:27.624Z,18.25
2022-09-16T16:37:46.767Z,18.70
2022-09-16T16:42:50.443Z,18.73
2022-09-16T16:47:53.289Z,17.96
2022-09-16T16:52:55.731Z,17.04
2022-09-16T16:57:58.249Z,16.52
2022-09-16T17:03:00.743Z,16.26
2022-09-16T17:08:03.449Z,16.12
2022-09-16T17:13:05.885Z,16.11
2022-09-16T17:18:08.543Z,16.57
2022-09-16T17:23:11.017Z,18.37
2022-09-16T17:28:13.658Z,18.76
2022-09-16T17:33:16.174Z,18.70
2022-09-16T17:38:18.760Z,18.68
2022-09-16T17:43:21.309Z,18.28
2022-09-16T17:48:24.013Z,16.99
2022-09-16T17:53:26.702Z,17.05
2022-09-16T17:58:29.094Z,16.05
2022-09-16T18:03:31.725Z,15.96
2022-09-16T18:08:35.100Z,15.77
2022-09-16T18:13:38.391Z,15.33
2022-09-16T18:18:42.681Z,15.45
2022-09-16T18:23:46.133Z,15.54
2022-09-16T18:34:13.933Z,14.47
2022-09-16T18:39:17.600Z,14.78
2022-09-16T18:44:26.287Z,14.57
2022-09-16T18:49:30.214Z,14.23
2022-09-16T18:54:33.331Z,13.82
2022-09-16T18:59:36.881Z,13.61
2022-09-16T19:04:41.649Z,13.72
2022-09-16T19:09:46.112Z,13.90
2022-09-16T19:14:54.278Z,14.01
2022-09-16T19:19:57.174Z,13.70
2022-09-16T19:25:01.543Z,13.71
2022-09-16T19:30:04.819Z,13.30
2022-09-16T19:35:07.499Z,13.13
2022-09-16T19:40:10.168Z,12.84
2022-09-16T19:45:12.667Z,12.74
2022-09-16T19:50:15.223Z,12.78
2022-09-16T19:55:18.014Z,13.15
2022-09-16T20:00:20.608Z,13.17
2022-09-16T20:05:23.691Z,12.70
2022-09-16T20:10:27.787Z,12.97
2022-09-16T20:15:30.338Z,13.21
2022-09-16T20:20:32.994Z,13.02
2022-09-16T20:25:37.650Z,12.92
2022-09-16T20:30:40.132Z,12.95
2022-09-16T20:35:42.603Z,13.05
2022-09-16T20:40:45.197Z,12.70
2022-09-16T20:45:48.107Z,12.78
2022-09-16T20:50:50.642Z,12.68
2022-09-16T20:55:53.120Z,12.62
2022-09-16T21:00:55.733Z,12.63
2022-09-16T21:06:13.567Z,12.43
2022-09-16T21:11:18.953Z,12.39
2022-09-16T21:16:23.501Z,12.31
2022-09-16T21:21:29.282Z,12.14
2022-09-16T21:26:33.986Z,12.34
2022-09-16T21:31:38.213Z,12.43
2022-09-16T21:36:41.079Z,12.74
2022-09-16T21:41:48.251Z,12.88
2022-09-16T21:46:51.848Z,12.65
2022-09-16T21:51:58.848Z,12.47
2022-09-16T21:57:01.262Z,12.34
2022-09-16T22:02:04.173Z,12.13
2022-09-16T22:07:10.792Z,12.13
2022-09-16T22:12:13.273Z,11.95
2022-09-16T22:17:15.769Z,11.78
2022-09-16T22:22:18.733Z,11.65
2022-09-16T22:27:21.281Z,11.70
2022-09-16T22:32:23.770Z,11.63
2022-09-16T22:37:26.186Z,11.68
2022-09-16T22:42:28.608Z,11.46
2022-09-16T22:47:31.133Z,11.67
2022-09-16T22:52:33.645Z,12.02
2022-09-16T22:57:36.094Z,12.32
2022-09-16T23:02:38.499Z,12.12
2022-09-16T23:07:40.970Z,12.02
2022-09-16T23:12:43.372Z,12.10
2022-09-16T23:17:46.287Z,12.08
2022-09-16T23:22:49.360Z,12.23
2022-09-16T23:27:52.562Z,11.93
2022-09-16T23:32:55.013Z,11.76
2022-09-16T23:37:57.718Z,11.65
2022-09-16T23:43:00.287Z,11.77
2022-09-16T23:48:03.674Z,11.67
2022-09-16T23:53:06.296Z,11.65
2022-09-16T23:58:08.769Z,11.62
